Time;durP1;ratioP1;P1;durP2;ratioP2;P2;SDS_P1;SDS_P2;PMS_P1;PMS_P2;Temp;Humidity;BMP_temperature;BMP_pressure;BME280_temperature;BME280_humidity;BME280_pressure;Samples;Min_cycle;Max_cycle;Signal;HPM_P1;HPM_P2
2023/01/03 00:01:10;;;;;;;0.03;0.03;;;1.90;99.90;;;;;;5097116;28;20040;-86
2023/01/03 00:03:36;;;;;;;0.10;0.10;;;1.90;99.90;;;;;;5097173;28;20379;-87
2023/01/03 00:06:02;;;;;;;1.20;0.50;;;1.90;99.90;;;;;;5095867;28;20090;-86
2023/01/03 00:08:28;;;;;;;0.45;0.45;;;1.80;99.90;;;;;;5096790;28;20383;-86
2023/01/03 00:10:53;;;;;;;0.00;0.00;;;1.80;99.90;;;;;;5097113;28;20078;-86
2023/01/03 00:13:19;;;;;;;0.00;0.00;;;1.80;99.90;;;;;;5095289;28;20043;-86
2023/01/03 00:15:44;;;;;;;0.00;0.00;;;1.80;99.90;;;;;;5095827;28;20051;-87
2023/01/03 00:18:10;;;;;;;0.38;0.38;;;1.80;99.90;;;;;;5095414;28;20128;-87
2023/01/03 00:20:35;;;;;;;1.75;0.68;;;1.80;99.90;;;;;;5096712;28;20043;-87
2023/01/03 00:23:01;;;;;;;0.10;0.10;;;1.80;99.90;;;;;;5095879;28;20119;-86
2023/01/03 00:25:28;;;;;;;1.20;0.35;;;1.80;99.90;;;;;;5096222;28;20044;-86
2023/01/03 00:27:53;;;;;;;0.00;0.00;;;1.80;99.90;;;;;;5093997;28;20483;-86
2023/01/03 00:30:19;;;;;;;0.00;0.00;;;1.80;99.90;;;;;;5095085;28;20089;-86
2023/01/03 00:32:44;;;;;;;0.00;0.00;;;1.70;99.90;;;;;;5094740;28;20040;-86
2023/01/03 00:35:10;;;;;;;0.00;0.00;;;1.70;99.90;;;;;;5094323;28;20422;-86
2023/01/03 00:37:36;;;;;;;0.88;0.88;;;1.60;99.90;;;;;;5094280;28;20039;-86
2023/01/03 00:40:02;;;;;;;0.00;0.00;;;1.60;99.90;;;;;;5094887;28;20176;-86
2023/01/03 00:42:27;;;;;;;0.40;0.40;;;1.50;99.90;;;;;;5095732;28;20533;-86
2023/01/03 00:44:53;;;;;;;0.15;0.13;;;1.40;99.90;;;;;;5095262;28;20036;-86
2023/01/03 00:47:18;;;;;;;0.20;0.20;;;1.30;99.90;;;;;;5094297;28;20036;-86
2023/01/03 00:49:44;;;;;;;0.43;0.43;;;1.30;99.90;;;;;;5095880;28;20093;-87
2023/01/03 00:52:10;;;;;;;1.20;1.10;;;1.10;99.90;;;;;;5094270;28;20050;-85
2023/01/03 00:54:35;;;;;;;0.10;0.10;;;1.00;99.90;;;;;;5093674;28;20491;-86
2023/01/03 00:57:01;;;;;;;0.10;0.10;;;1.00;99.90;;;;;;5095356;28;20040;-86
2023/01/03 00:59:27;;;;;;;0.45;0.45;;;0.80;99.90;;;;;;5094309;28;20101;-86
2023/01/03 01:01:55;;;;;;;0.00;0.00;;;1.20;99.90;;;;;;5095483;28;20075;-86
2023/01/03 01:04:27;;;;;;;0.13;0.13;;;0.70;99.90;;;;;;5094019;28;20176;-86
2023/01/03 01:06:55;;;;;;;0.00;0.00;;;0.60;99.90;;;;;;5095288;28;20403;-86
2023/01/03 01:09:23;;;;;;;0.00;0.00;;;0.60;99.90;;;;;;5095436;28;20036;-86
2023/01/03 01:11:50;;;;;;;0.10;0.10;;;0.70;99.90;;;;;;5095634;28;20036;-86
2023/01/03 01:14:19;;;;;;;0.10;0.10;;;0.80;99.90;;;;;;5095518;28;20052;-86
2023/01/03 01:16:57;;;;;;;0.00;0.00;;;0.90;99.90;;;;;;5094384;28;20047;-86
2023/01/03 01:19:42;;;;;;;0.00;0.00;;;1.10;99.90;;;;;;5095245;28;20093;-86
2023/01/03 01:22:08;;;;;;;1.45;0.98;;;1.20;99.90;;;;;;5094990;28;20037;-86
2023/01/03 01:24:34;;;;;;;0.10;0.10;;;1.30;99.90;;;;;;5093952;28;20046;-87
2023/01/03 01:26:59;;;;;;;0.05;0.05;;;1.40;99.90;;;;;;5095423;28;20119;-86
2023/01/03 01:29:25;;;;;;;0.95;0.90;;;1.40;99.90;;;;;;5095299;28;20070;-87
2023/01/03 01:31:51;;;;;;;0.10;0.10;;;1.50;99.90;;;;;;5093801;28;20085;-86
2023/01/03 01:34:17;;;;;;;0.22;0.22;;;1.60;99.90;;;;;;5085063;28;20526;-86
2023/01/03 01:36:44;;;;;;;0.00;0.00;;;1.80;99.90;;;;;;5073509;28;20037;-86
2023/01/03 01:39:15;;;;;;;0.10;0.10;;;1.80;99.90;;;;;;5073019;28;20037;-86
2023/01/03 01:44:57;;;;;;;0.00;0.00;;;1.90;99.90;;;;;;5084328;28;20135;-87
2023/01/03 01:47:38;;;;;;;0.60;0.23;;;2.00;99.90;;;;;;5094723;28;20040;-86
2023/01/03 01:50:23;;;;;;;1.50;1.17;;;2.00;99.90;;;;;;5094020;28;20074;-86
2023/01/03 01:53:01;;;;;;;0.00;0.00;;;2.00;99.90;;;;;;5093618;28;20040;-87
2023/01/03 01:55:34;;;;;;;0.25;0.25;;;2.00;99.90;;;;;;5094477;28;20467;-86
2023/01/03 01:58:00;;;;;;;0.22;0.22;;;2.00;99.90;;;;;;5091920;28;20063;-87
2023/01/03 02:00:27;;;;;;;0.00;0.00;;;2.10;99.90;;;;;;5093590;28;20036;-87
2023/01/03 02:02:54;;;;;;;0.20;0.20;;;2.10;99.90;;;;;;5093035;28;20044;-87
2023/01/03 02:05:20;;;;;;;0.55;0.55;;;2.20;99.90;;;;;;5092799;28;20040;-86
2023/01/03 02:07:49;;;;;;;0.10;0.10;;;2.10;99.90;;;;;;5094198;28;20078;-87
2023/01/03 02:10:15;;;;;;;0.32;0.28;;;2.00;99.90;;;;;;5093040;28;20048;-86
2023/01/03 02:13:05;;;;;;;0.05;0.05;;;2.00;99.90;;;;;;5094963;28;20036;-87
2023/01/03 02:15:56;;;;;;;0.45;0.45;;;2.80;99.90;;;;;;5094147;28;20054;-86
2023/01/03 02:18:45;;;;;;;1.65;0.98;;;1.90;99.90;;;;;;5092776;28;20043;-86
2023/01/03 02:21:31;;;;;;;0.05;0.05;;;1.90;99.90;;;;;;5093164;28;20048;-86
2023/01/03 02:24:21;;;;;;;0.50;0.50;;;1.80;99.90;;;;;;5093026;28;20055;-86
2023/01/03 02:27:05;;;;;;;0.30;0.30;;;1.90;99.90;;;;;;5094225;28;20040;-86
2023/01/03 02:30:28;;;;;;;1.10;1.00;;;1.90;99.90;;;;;;5092944;28;20487;-86
2023/01/03 02:33:14;;;;;;;0.20;0.20;;;1.90;99.90;;;;;;4995350;28;20053;-86
2023/01/03 02:35:53;;;;;;;0.00;0.00;;;2.10;99.90;;;;;;4997487;28;20433;-86
2023/01/03 02:38:22;;;;;;;0.10;0.10;;;2.20;99.90;;;;;;5069054;28;20048;-86
2023/01/03 02:41:03;;;;;;;0.10;0.10;;;2.30;99.90;;;;;;5092898;28;20055;-87
2023/01/03 02:43:36;;;;;;;1.98;0.75;;;2.30;99.90;;;;;;5092849;28;20052;-87
2023/01/03 02:46:24;;;;;;;0.20;0.20;;;2.40;99.90;;;;;;5094044;28;20055;-87
2023/01/03 02:49:14;;;;;;;0.20;0.20;;;2.50;99.90;;;;;;5092463;28;20483;-86
2023/01/03 02:51:44;;;;;;;0.80;0.80;;;2.40;99.90;;;;;;5095676;28;20043;-87
2023/01/03 02:54:19;;;;;;;0.10;0.10;;;2.40;99.90;;;;;;5097647;28;20074;-86
2023/01/03 02:56:53;;;;;;;0.50;0.50;;;2.40;99.90;;;;;;5096910;28;20075;-87
2023/01/03 02:59:24;;;;;;;0.30;0.30;;;2.30;99.90;;;;;;5098503;28;20048;-87
2023/01/03 03:01:51;;;;;;;1.02;1.00;;;2.20;99.90;;;;;;5097989;28;20047;-87
2023/01/03 03:04:18;;;;;;;2.08;1.45;;;2.00;99.90;;;;;;5097698;28;20047;-86
2023/01/03 03:06:56;;;;;;;0.08;0.08;;;1.80;99.90;;;;;;5098160;28;20069;-87
2023/01/03 03:09:22;;;;;;;0.20;0.20;;;1.60;99.90;;;;;;5097807;28;20162;-87
2023/01/03 03:14:39;;;;;;;0.10;0.10;;;1.40;99.90;;;;;;5090551;28;20040;-87
2023/01/03 03:17:22;;;;;;;0.50;0.25;;;1.30;99.90;;;;;;5077208;28;20520;-87
2023/01/03 03:26:09;;;;;;;0.45;0.43;;;1.20;99.90;;;;;;5075802;28;20044;-87
2023/01/03 03:28:42;;;;;;;0.10;0.10;;;1.10;99.90;;;;;;5077245;28;20128;-86
2023/01/03 03:31:15;;;;;;;0.00;0.00;;;1.00;99.90;;;;;;5077261;28;20040;-86
2023/01/03 03:33:45;;;;;;;0.20;0.20;;;0.90;99.90;;;;;;5083493;28;20544;-86
2023/01/03 03:36:16;;;;;;;7.88;1.13;;;0.90;99.90;;;;;;5095606;28;20044;-86
2023/01/03 03:38:44;;;;;;;0.10;0.10;;;0.80;99.90;;;;;;5097140;28;20040;-86
2023/01/03 03:46:55;;;;;;;0.97;0.97;;;0.60;99.90;;;;;;5097011;28;20048;-86
2023/01/03 03:49:38;;;;;;;0.10;0.10;;;0.60;99.90;;;;;;5095798;28;20610;-86
2023/01/03 03:52:14;;;;;;;0.10;0.10;;;0.50;99.90;;;;;;5096015;28;20056;-86
2023/01/03 03:54:44;;;;;;;0.28;0.28;;;0.40;99.90;;;;;;5095329;28;20495;-86
2023/01/03 03:57:19;;;;;;;0.10;0.10;;;0.40;99.90;;;;;;5096117;28;20487;-86
2023/01/03 03:59:50;;;;;;;0.43;0.43;;;0.40;99.90;;;;;;5109389;28;20044;-86
2023/01/03 04:02:17;;;;;;;0.00;0.00;;;0.50;99.90;;;;;;5112691;28;20036;-85
2023/01/03 04:04:46;;;;;;;0.00;0.00;;;0.40;99.90;;;;;;5082945;28;20095;-86
2023/01/03 04:07:12;;;;;;;0.40;0.40;;;0.40;99.90;;;;;;5096296;28;20522;-86
2023/01/03 04:09:38;;;;;;;0.52;0.52;;;0.40;99.90;;;;;;5095694;28;20048;-86
2023/01/03 04:12:04;;;;;;;0.80;0.73;;;0.50;99.90;;;;;;5096623;28;20058;-86
2023/01/03 04:14:29;;;;;;;3.57;1.83;;;0.50;99.90;;;;;;5095314;28;20118;-87
2023/01/03 04:16:55;;;;;;;1.33;1.27;;;0.60;99.90;;;;;;5095289;28;20089;-86
2023/01/03 04:19:20;;;;;;;0.13;0.13;;;0.60;99.90;;;;;;5096657;28;20031;-86
2023/01/03 04:21:46;;;;;;;1.45;0.90;;;0.70;99.90;;;;;;5096597;28;20039;-87
2023/01/03 04:24:11;;;;;;;0.45;0.43;;;0.70;99.90;;;;;;5094658;28;20105;-86
2023/01/03 04:26:37;;;;;;;0.10;0.10;;;0.80;99.90;;;;;;5094813;28;20410;-86
2023/01/03 04:29:03;;;;;;;0.37;0.37;;;1.00;99.90;;;;;;5096089;28;20044;-86
2023/01/03 04:31:28;;;;;;;0.20;0.20;;;1.10;99.90;;;;;;5094581;28;20040;-86
2023/01/03 04:33:54;;;;;;;0.88;0.85;;;1.20;99.90;;;;;;5094579;28;20437;-86
2023/01/03 04:36:20;;;;;;;2.30;1.17;;;1.30;99.90;;;;;;5094841;28;20444;-86
2023/01/03 04:38:46;;;;;;;1.13;0.50;;;1.30;99.90;;;;;;5096083;28;20040;-86
2023/01/03 04:41:11;;;;;;;0.52;0.52;;;1.30;99.90;;;;;;5094976;28;20067;-86
2023/01/03 04:46:21;;;;;;;0.28;0.28;;;1.20;99.90;;;;;;5074399;28;20194;-86
2023/01/03 04:48:47;;;;;;;0.40;0.40;;;1.10;99.90;;;;;;5074012;28;20083;-86
2023/01/03 04:51:13;;;;;;;0.10;0.10;;;1.00;99.90;;;;;;5075583;28;20111;-86
2023/01/03 04:53:38;;;;;;;1.25;0.70;;;1.00;99.90;;;;;;5080316;28;20085;-86
2023/01/03 04:56:04;;;;;;;1.63;1.08;;;1.00;99.90;;;;;;5095514;28;20048;-86
2023/01/03 04:58:30;;;;;;;0.40;0.40;;;1.20;99.90;;;;;;5096478;28;20044;-86
2023/01/03 05:01:03;;;;;;;0.40;0.40;;;1.30;99.90;;;;;;5094735;28;20044;-87
2023/01/03 05:03:30;;;;;;;0.65;0.65;;;1.40;99.90;;;;;;5094266;28;20364;-87
2023/01/03 05:06:00;;;;;;;1.48;1.38;;;1.40;99.90;;;;;;5094291;28;20067;-86
2023/01/03 05:08:26;;;;;;;0.35;0.35;;;1.50;99.90;;;;;;5094479;28;20415;-86
2023/01/03 05:10:54;;;;;;;1.67;1.55;;;1.50;99.90;;;;;;5094205;28;20103;-87
2023/01/03 05:13:20;;;;;;;0.43;0.43;;;1.50;99.90;;;;;;5094536;28;20187;-86
2023/01/03 05:15:46;;;;;;;1.50;1.40;;;1.60;99.90;;;;;;5095262;28;20047;-86
2023/01/03 05:18:11;;;;;;;0.75;0.75;;;1.70;99.90;;;;;;5094309;28;20047;-87
2023/01/03 05:26:13;;;;;;;0.82;0.63;;;2.10;99.90;;;;;;5074277;28;20110;-86
2023/01/03 05:28:40;;;;;;;0.15;0.15;;;2.20;99.90;;;;;;5073681;28;20048;-87
2023/01/03 05:31:06;;;;;;;2.05;1.13;;;2.20;99.90;;;;;;5072277;28;20040;-87
2023/01/03 05:33:32;;;;;;;0.30;0.30;;;2.30;99.90;;;;;;5091809;28;20535;-87
2023/01/03 05:35:57;;;;;;;1.08;1.02;;;2.30;99.90;;;;;;5092342;28;20044;-87
2023/01/03 05:38:23;;;;;;;1.80;1.15;;;2.30;99.90;;;;;;5092020;28;20046;-86
2023/01/03 05:40:50;;;;;;;1.52;1.08;;;2.40;99.90;;;;;;5092517;28;20036;-87
2023/01/03 05:43:15;;;;;;;0.70;0.70;;;2.40;99.90;;;;;;5093905;28;20044;-87
2023/01/03 05:45:41;;;;;;;4.25;1.58;;;2.40;99.90;;;;;;5093646;28;20040;-87
2023/01/03 05:48:08;;;;;;;0.63;0.63;;;2.40;99.90;;;;;;5093166;28;20490;-87
2023/01/03 05:50:34;;;;;;;0.43;0.43;;;2.40;99.90;;;;;;5093144;28;20123;-87
2023/01/03 05:52:59;;;;;;;1.38;1.27;;;2.40;99.90;;;;;;5093156;28;20166;-87
2023/01/03 05:55:25;;;;;;;0.25;0.25;;;2.50;99.90;;;;;;5093465;28;20165;-87
2023/01/03 05:57:51;;;;;;;1.17;1.07;;;2.50;99.90;;;;;;5091271;28;20040;-87
2023/01/03 06:00:17;;;;;;;0.63;0.63;;;2.50;99.90;;;;;;5091476;28;20082;-87
2023/01/03 06:02:43;;;;;;;1.40;1.00;;;2.50;99.90;;;;;;5089429;28;20073;-87
2023/01/03 06:05:09;;;;;;;3.60;2.17;;;2.50;99.90;;;;;;5088785;28;20044;-87
2023/01/03 06:07:36;;;;;;;2.92;2.60;;;2.50;99.90;;;;;;5090655;28;20048;-87
2023/01/03 06:10:03;;;;;;;0.50;0.50;;;2.40;99.90;;;;;;5089551;28;20127;-87
2023/01/03 06:12:29;;;;;;;0.73;0.73;;;2.30;99.90;;;;;;5091249;28;20036;-87
2023/01/03 06:14:55;;;;;;;0.40;0.40;;;2.30;99.90;;;;;;5090459;28;20051;-87
2023/01/03 06:20:06;;;;;;;2.05;1.75;;;2.10;99.90;;;;;;5070181;28;20533;-87
2023/01/03 06:22:32;;;;;;;0.65;0.65;;;1.90;99.90;;;;;;5069834;28;20090;-87
2023/01/03 06:24:57;;;;;;;0.25;0.25;;;1.80;99.90;;;;;;5085777;28;20429;-87
2023/01/03 06:27:23;;;;;;;1.63;1.00;;;1.70;99.90;;;;;;5093930;28;20043;-87
2023/01/03 06:29:49;;;;;;;0.10;0.10;;;1.60;99.90;;;;;;5096201;28;20441;-87
2023/01/03 06:32:14;;;;;;;1.05;1.02;;;1.50;99.90;;;;;;5096099;28;20048;-86
2023/01/03 06:34:40;;;;;;;0.17;0.17;;;1.40;99.90;;;;;;5095683;28;20083;-86
2023/01/03 06:37:05;;;;;;;0.17;0.17;;;1.30;99.90;;;;;;5078674;28;20483;-87
2023/01/03 06:39:32;;;;;;;0.30;0.30;;;1.20;99.90;;;;;;5095773;28;20036;-86
2023/01/03 06:42:38;;;;;;;3.60;1.53;;;1.00;99.90;;;;;;5097700;28;20109;-86
2023/01/03 06:53:10;;;;;;;2.85;1.27;;;0.90;99.90;;;;;;5097035;28;20040;-87
2023/01/03 06:53:13;;;;;;;0.30;0.30;;;0.70;99.90;;;;;;5095738;28;20056;-86
2023/01/03 06:55:43;;;;;;;2.45;1.33;;;0.60;99.90;;;;;;5096677;28;20475;-87
2023/01/03 06:58:10;;;;;;;0.57;0.57;;;0.60;99.90;;;;;;5095589;28;20050;-87
2023/01/03 07:00:37;;;;;;;0.63;0.63;;;0.60;99.90;;;;;;5095556;28;20051;-87
2023/01/03 07:03:03;;;;;;;0.28;0.28;;;0.50;99.90;;;;;;5095696;28;20051;-86
2023/01/03 07:05:29;;;;;;;1.88;1.70;;;0.50;99.90;;;;;;5097003;28;20123;-87
2023/01/03 07:07:54;;;;;;;0.73;0.73;;;0.60;99.90;;;;;;5095667;28;20040;-87
2023/01/03 07:10:20;;;;;;;3.10;1.60;;;0.70;99.90;;;;;;5095996;28;20093;-86
2023/01/03 07:15:29;;;;;;;1.95;1.27;;;0.70;99.90;;;;;;5076474;28;20446;-86
2023/01/03 07:17:55;;;;;;;4.10;2.15;;;0.70;99.90;;;;;;5077162;28;20041;-86
2023/01/03 07:20:21;;;;;;;1.95;1.38;;;0.60;99.90;;;;;;5095677;28;20487;-87
2023/01/03 07:22:46;;;;;;;1.02;0.95;;;0.60;99.90;;;;;;5086202;28;20101;-87
2023/01/03 07:25:12;;;;;;;0.35;0.35;;;0.60;99.90;;;;;;5086888;28;20467;-87
2023/01/03 07:27:37;;;;;;;0.50;0.50;;;0.60;99.90;;;;;;5096341;28;20036;-86
2023/01/03 07:30:04;;;;;;;0.47;0.47;;;0.50;99.90;;;;;;5095193;28;20380;-86
2023/01/03 07:32:29;;;;;;;2.65;1.65;;;0.50;99.90;;;;;;5095051;28;20512;-86
2023/01/03 07:34:55;;;;;;;1.20;1.15;;;0.60;99.90;;;;;;5096116;28;20044;-86
2023/01/03 07:37:20;;;;;;;0.13;0.13;;;0.60;99.90;;;;;;5108190;28;20051;-85
2023/01/03 07:39:46;;;;;;;0.70;0.70;;;0.50;99.90;;;;;;5115605;28;20040;-86
2023/01/03 07:44:56;;;;;;;1.38;1.27;;;0.50;99.90;;;;;;5111652;28;20044;-86
2023/01/03 07:47:21;;;;;;;2.55;0.73;;;0.50;99.90;;;;;;5114120;28;20040;-86
2023/01/03 07:49:47;;;;;;;2.28;1.20;;;0.50;99.90;;;;;;5105653;28;20036;-86
2023/01/03 07:52:12;;;;;;;0.50;0.50;;;0.40;99.90;;;;;;5094473;28;20040;-87
2023/01/03 07:54:38;;;;;;;1.60;1.13;;;0.40;99.90;;;;;;5094695;28;20048;-86
2023/01/03 07:57:03;;;;;;;1.30;1.20;;;0.40;99.90;;;;;;5096150;28;20044;-87
2023/01/03 07:59:29;;;;;;;0.95;0.95;;;0.40;99.90;;;;;;5094262;28;20040;-86
2023/01/03 08:01:54;;;;;;;3.83;0.95;;;0.50;99.90;;;;;;5094365;28;20040;-87
2023/01/03 08:04:20;;;;;;;1.03;0.83;;;0.60;99.90;;;;;;5095600;28;20040;-87
2023/01/03 08:06:46;;;;;;;0.65;0.65;;;0.60;99.90;;;;;;5091655;28;20626;-86
2023/01/03 08:14:39;;;;;;;1.10;1.00;;;0.60;99.90;;;;;;5091736;28;20062;-85
2023/01/03 08:17:05;;;;;;;0.47;0.47;;;0.60;99.90;;;;;;5091648;28;20048;-86
2023/01/03 08:19:30;;;;;;;1.95;1.17;;;0.60;99.90;;;;;;5091387;28;20065;-86
2023/01/03 08:21:56;;;;;;;1.15;0.90;;;0.60;99.90;;;;;;5091247;28;20040;-87
2023/01/03 08:24:22;;;;;;;0.85;0.85;;;0.70;99.90;;;;;;5091140;28;20071;-87
2023/01/03 08:26:47;;;;;;;1.48;1.10;;;0.70;99.90;;;;;;5091440;28;20036;-86
2023/01/03 08:29:13;;;;;;;2.37;1.43;;;0.90;99.90;;;;;;5090957;28;20048;-86
2023/01/03 08:31:45;;;;;;;1.23;1.08;;;0.90;99.90;;;;;;5091318;28;20525;-87
2023/01/03 08:34:12;;;;;;;0.47;0.47;;;1.00;99.90;;;;;;5091554;28;20048;-87
2023/01/03 08:36:44;;;;;;;0.47;0.47;;;0.90;99.90;;;;;;5091482;28;20048;-86
2023/01/03 08:39:15;;;;;;;0.57;0.57;;;0.90;99.90;;;;;;5092222;28;20533;-86
2023/01/03 08:41:46;;;;;;;1.33;1.23;;;0.90;99.90;;;;;;5091276;28;20077;-86
2023/01/03 08:44:12;;;;;;;0.70;0.70;;;0.90;99.90;;;;;;5091035;28;20494;-86
2023/01/03 08:46:48;;;;;;;3.40;2.40;;;1.10;99.90;;;;;;5094098;28;20090;-87
2023/01/03 08:49:13;;;;;;;2.25;1.17;;;1.20;99.90;;;;;;5092002;28;20052;-86
2023/01/03 08:51:39;;;;;;;0.23;0.23;;;1.30;99.90;;;;;;5095117;28;20059;-87
2023/01/03 08:54:05;;;;;;;0.27;0.27;;;1.40;99.90;;;;;;5094460;28;20044;-87
2023/01/03 08:56:30;;;;;;;0.43;0.43;;;1.30;99.90;;;;;;5093477;28;20114;-86
2023/01/03 08:58:58;;;;;;;0.40;0.40;;;1.30;99.90;;;;;;5094409;28;20052;-86
2023/01/03 09:01:25;;;;;;;1.38;1.27;;;1.30;99.90;;;;;;5093756;28;20127;-87
2023/01/03 09:03:50;;;;;;;0.50;0.50;;;1.30;99.90;;;;;;5094523;28;20546;-87
2023/01/03 09:06:16;;;;;;;2.17;0.80;;;1.30;99.90;;;;;;5093383;28;20123;-87
2023/01/03 09:08:41;;;;;;;0.57;0.57;;;1.30;99.90;;;;;;5093070;28;20076;-87
2023/01/03 09:11:08;;;;;;;0.10;0.10;;;1.20;99.90;;;;;;5093090;28;20548;-87
2023/01/03 09:13:34;;;;;;;0.63;0.63;;;1.20;99.90;;;;;;5093536;28;20039;-87
2023/01/03 09:16:02;;;;;;;1.52;1.42;;;1.20;99.90;;;;;;5094411;28;20040;-87
2023/01/03 09:18:28;;;;;;;0.97;0.97;;;1.30;99.90;;;;;;5093098;28;20051;-87
2023/01/03 09:20:53;;;;;;;0.40;0.40;;;1.30;99.90;;;;;;5093330;28;20398;-87
2023/01/03 09:23:19;;;;;;;0.30;0.30;;;1.40;99.90;;;;;;5093950;28;20039;-87
2023/01/03 09:25:45;;;;;;;0.63;0.63;;;1.40;99.90;;;;;;5093057;28;20114;-86
2023/01/03 09:28:12;;;;;;;0.38;0.38;;;1.50;99.90;;;;;;5093985;28;20621;-87
2023/01/03 09:30:37;;;;;;;2.00;1.08;;;1.50;99.90;;;;;;5093762;28;20556;-87
2023/01/03 09:33:03;;;;;;;0.90;0.80;;;1.60;99.90;;;;;;5092468;28;20044;-87
2023/01/03 09:35:30;;;;;;;0.90;0.80;;;1.70;99.90;;;;;;5094031;28;20047;-87
2023/01/03 09:37:56;;;;;;;1.50;1.40;;;1.80;99.90;;;;;;5093646;28;20406;-87
2023/01/03 09:40:22;;;;;;;0.03;0.03;;;1.90;99.90;;;;;;5093585;28;20040;-87
2023/01/03 09:45:35;;;;;;;0.22;0.22;;;2.00;99.90;;;;;;5092196;28;20575;-87
2023/01/03 09:48:03;;;;;;;1.70;1.38;;;2.10;99.90;;;;;;5093459;28;20048;-87
2023/01/03 09:50:33;;;;;;;0.50;0.50;;;2.10;99.90;;;;;;5093709;28;20491;-87
2023/01/03 10:05:15;;;;;;;4.32;1.40;;;2.80;99.90;;;;;;5092504;28;20544;-87
2023/01/03 10:08:00;;;;;;;0.10;0.10;;;2.80;99.90;;;;;;5092679;28;20054;-87
2023/01/03 10:10:39;;;;;;;0.45;0.45;;;2.90;99.90;;;;;;5092741;28;20047;-87
2023/01/03 10:13:33;;;;;;;1.23;1.13;;;3.00;99.90;;;;;;5093693;28;20113;-87
2023/01/03 10:16:17;;;;;;;1.48;1.38;;;3.00;99.90;;;;;;5093357;28;20040;-87
2023/01/03 10:19:04;;;;;;;1.60;1.48;;;3.10;99.90;;;;;;5091893;28;20403;-87
2023/01/03 10:21:42;;;;;;;1.47;1.37;;;3.20;99.90;;;;;;5091602;28;20046;-87
2023/01/03 10:25:02;;;;;;;3.10;1.85;;;3.20;99.90;;;;;;5083029;28;20535;-87
2023/01/03 10:27:32;;;;;;;0.57;0.57;;;3.30;99.90;;;;;;5076702;28;20513;-87
2023/01/03 10:30:04;;;;;;;1.45;0.75;;;3.40;99.90;;;;;;5088556;28;20122;-87
2023/01/03 10:32:48;;;;;;;3.35;1.52;;;3.50;99.90;;;;;;5090242;28;20101;-87
2023/01/03 10:35:21;;;;;;;4.13;1.75;;;3.50;99.90;;;;;;5089412;28;20075;-87
2023/01/03 10:37:49;;;;;;;1.35;1.25;;;3.60;99.90;;;;;;5088693;28;20056;-87
2023/01/03 10:40:14;;;;;;;2.63;1.90;;;3.70;99.90;;;;;;5092467;28;20048;-87
2023/01/03 10:42:42;;;;;;;1.45;1.35;;;3.80;99.90;;;;;;5091773;28;20047;-87
2023/01/03 10:45:17;;;;;;;2.97;2.78;;;3.80;99.90;;;;;;5091887;28;20380;-87
2023/01/03 10:47:43;;;;;;;3.10;2.90;;;3.90;99.90;;;;;;5091503;28;20062;-87
2023/01/03 10:50:22;;;;;;;1.77;1.67;;;4.00;99.90;;;;;;5091564;28;20071;-87
2023/01/03 10:53:04;;;;;;;3.05;0.98;;;4.10;99.90;;;;;;5091582;28;20040;-87
2023/01/03 10:55:34;;;;;;;2.00;1.55;;;4.20;99.90;;;;;;5092673;28;20069;-87
2023/01/03 10:58:02;;;;;;;3.53;3.13;;;4.20;99.90;;;;;;5091302;28;20089;-87
2023/01/03 11:00:36;;;;;;;2.92;1.48;;;4.30;99.90;;;;;;5090618;28;20328;-87
2023/01/03 11:03:21;;;;;;;4.68;3.92;;;4.40;99.90;;;;;;5089528;28;20043;-87
2023/01/03 11:06:05;;;;;;;0.85;0.85;;;4.50;99.90;;;;;;5090828;28;20054;-87
2023/01/03 11:08:46;;;;;;;2.00;1.90;;;4.50;99.90;;;;;;5090781;28;20051;-87
2023/01/03 11:11:26;;;;;;;1.13;1.08;;;4.60;99.90;;;;;;5089470;28;20098;-87
2023/01/03 11:14:03;;;;;;;1.88;1.77;;;4.80;99.90;;;;;;5093769;28;20044;-87
2023/01/03 11:16:31;;;;;;;2.95;2.67;;;4.80;99.90;;;;;;5094394;28;20040;-87
2023/01/03 11:19:01;;;;;;;1.77;1.67;;;5.00;99.90;;;;;;5094507;28;20037;-87
2023/01/03 11:21:43;;;;;;;5.22;2.15;;;5.10;99.90;;;;;;5094149;28;20040;-87
2023/01/03 11:24:47;;;;;;;6.35;3.53;;;5.30;99.90;;;;;;5092914;28;20066;-87
2023/01/03 11:27:30;;;;;;;3.72;2.80;;;5.30;99.90;;;;;;5093109;28;20554;-87
2023/01/03 11:30:18;;;;;;;3.15;2.78;;;5.30;99.90;;;;;;5094373;28;20044;-87
2023/01/03 11:33:02;;;;;;;2.58;2.33;;;5.30;99.90;;;;;;5092908;28;20052;-87
2023/01/03 11:35:54;;;;;;;4.32;3.83;;;5.30;99.90;;;;;;5094362;28;20509;-87
2023/01/03 11:38:45;;;;;;;3.65;2.97;;;5.40;99.90;;;;;;5094600;28;20058;-87
2023/01/03 11:41:10;;;;;;;1.48;1.27;;;5.80;99.90;;;;;;5113074;28;20044;-87
2023/01/03 11:44:03;;;;;;;1.65;1.30;;;5.50;99.90;;;;;;5113338;28;20074;-87
2023/01/03 11:46:54;;;;;;;2.58;2.20;;;5.50;99.90;;;;;;5094198;28;20086;-87
2023/01/03 11:49:32;;;;;;;4.15;2.33;;;5.50;99.90;;;;;;5093224;28;20502;-87
2023/01/03 11:51:57;;;;;;;3.88;3.47;;;5.60;99.90;;;;;;5094397;28;20047;-88
2023/01/03 11:54:45;;;;;;;3.55;2.28;;;5.60;99.90;;;;;;5093611;28;20055;-87
2023/01/03 11:57:32;;;;;;;2.60;1.98;;;5.60;99.90;;;;;;5092865;28;20052;-87
2023/01/03 12:00:15;;;;;;;4.25;3.85;;;5.60;99.90;;;;;;5093397;28;20055;-87
2023/01/03 12:02:49;;;;;;;2.25;2.00;;;5.70;99.90;;;;;;5094654;28;20043;-87
2023/01/03 12:05:26;;;;;;;1.35;1.25;;;5.70;99.90;;;;;;5093565;28;20093;-87
2023/01/03 12:08:29;;;;;;;1.67;1.02;;;5.80;99.90;;;;;;5083559;28;20134;-87
2023/01/03 12:11:09;;;;;;;1.65;1.55;;;5.80;99.90;;;;;;5077034;28;20052;-87
2023/01/03 12:13:47;;;;;;;4.15;2.90;;;5.70;99.90;;;;;;5078564;28;20127;-87
2023/01/03 12:16:23;;;;;;;2.58;2.05;;;5.70;99.90;;;;;;5092593;28;20052;-87
2023/01/03 12:18:57;;;;;;;1.52;1.30;;;5.70;99.90;;;;;;5085810;28;20044;-87
2023/01/03 12:21:35;;;;;;;1.52;1.40;;;5.80;99.90;;;;;;5075514;28;20066;-87
2023/01/03 12:24:20;;;;;;;2.70;2.50;;;5.80;99.90;;;;;;5092646;28;20369;-87
2023/01/03 12:26:54;;;;;;;7.13;1.77;;;5.80;99.90;;;;;;5093939;28;20388;-88
2023/01/03 12:29:27;;;;;;;0.80;0.80;;;5.80;99.90;;;;;;5092935;28;20048;-87
2023/01/03 12:32:02;;;;;;;3.35;2.35;;;5.80;99.90;;;;;;5094549;28;20438;-87
2023/01/03 12:34:48;;;;;;;1.77;1.67;;;5.90;99.90;;;;;;5095517;28;20480;-88
2023/01/03 12:37:25;;;;;;;2.35;2.17;;;5.90;99.90;;;;;;5095054;28;20044;-87
2023/01/03 12:40:06;;;;;;;1.25;1.17;;;6.00;99.90;;;;;;5095859;28;20057;-87
2023/01/03 12:42:35;;;;;;;1.95;1.52;;;6.50;99.90;;;;;;5096707;28;20525;-88
2023/01/03 12:45:06;;;;;;;1.90;1.48;;;5.90;99.90;;;;;;5094991;28;20040;-87
2023/01/03 12:47:57;;;;;;;6.55;3.08;;;5.90;99.90;;;;;;5096625;28;20051;-87
2023/01/03 12:50:44;;;;;;;2.65;1.05;;;6.00;99.90;;;;;;5094968;28;20483;-87
2023/01/03 12:53:32;;;;;;;2.08;1.75;;;6.00;99.90;;;;;;5093489;28;20491;-87
2023/01/03 12:56:27;;;;;;;1.52;1.40;;;6.00;99.90;;;;;;5094620;28;20036;-88
2023/01/03 12:59:27;;;;;;;1.90;1.70;;;6.10;99.90;;;;;;5094802;28;20076;-87
2023/01/03 13:02:05;;;;;;;2.88;1.73;;;6.10;99.90;;;;;;5095243;28;20047;-87
2023/01/03 13:04:35;;;;;;;2.05;1.67;;;6.10;99.90;;;;;;5093539;28;20044;-88
2023/01/03 13:07:15;;;;;;;1.55;1.20;;;6.10;99.90;;;;;;5093331;28;20144;-87
2023/01/03 13:09:44;;;;;;;0.65;0.65;;;7.30;99.90;;;;;;5094686;28;20101;-87
2023/01/03 13:12:15;;;;;;;1.70;1.55;;;6.20;99.90;;;;;;5094507;28;20050;-87
2023/01/03 13:15:02;;;;;;;0.47;0.47;;;6.20;99.90;;;;;;5093115;28;20048;-87
2023/01/03 13:17:29;;;;;;;;;;;6.20;99.90;;;;;;5093424;28;20044;-87
2023/01/03 13:20:13;;;;;;;;;;;6.30;99.90;;;;;;5094128;28;19927;-87
2023/01/03 13:22:53;;;;;;;0.60;0.60;;;6.30;99.90;;;;;;5092617;28;19946;-88
2023/01/03 13:25:31;;;;;;;3.03;1.58;;;6.20;99.90;;;;;;5092755;28;20040;-87
2023/01/03 13:28:19;;;;;;;1.88;1.75;;;6.20;99.90;;;;;;5094505;28;20039;-88
2023/01/03 13:30:45;;;;;;;1.67;1.55;;;6.30;99.90;;;;;;5094302;28;20048;-87
2023/01/03 13:33:12;;;;;;;2.15;1.55;;;6.30;99.90;;;;;;5092230;28;20126;-87
2023/01/03 13:35:43;;;;;;;1.17;1.02;;;6.40;99.90;;;;;;5093481;28;20051;-87
2023/01/03 13:38:17;;;;;;;2.17;1.15;;;6.40;99.90;;;;;;5092153;28;20044;-87
2023/01/03 13:40:48;;;;;;;1.65;1.25;;;6.40;99.90;;;;;;5092170;28;20048;-87
2023/01/03 13:43:19;;;;;;;1.92;1.35;;;6.40;99.90;;;;;;5093380;28;20111;-87
2023/01/03 13:45:44;;;;;;;2.83;1.92;;;6.40;99.90;;;;;;5091994;28;20044;-87
2023/01/03 13:48:17;;;;;;;3.38;1.67;;;6.50;99.90;;;;;;5090571;28;20143;-87
2023/01/03 13:51:01;;;;;;;0.52;0.52;;;6.60;99.90;;;;;;5092128;28;20139;-87
2023/01/03 13:53:29;;;;;;;1.38;1.27;;;6.50;99.90;;;;;;5090355;28;20055;-87
2023/01/03 13:56:17;;;;;;;1.50;1.38;;;6.50;99.90;;;;;;5091162;28;20055;-87
2023/01/03 13:58:46;;;;;;;1.25;1.15;;;6.60;99.90;;;;;;5090794;28;20047;-87
2023/01/03 14:01:30;;;;;;;2.15;1.95;;;6.50;99.90;;;;;;5092798;28;20051;-87
2023/01/03 14:04:11;;;;;;;6.05;1.98;;;6.50;99.90;;;;;;5093176;28;20104;-87
2023/01/03 14:07:05;;;;;;;0.57;0.57;;;6.50;99.90;;;;;;5091462;28;20052;-87
2023/01/03 14:09:53;;;;;;;0.30;0.30;;;6.50;99.90;;;;;;5093540;28;20048;-89
2023/01/03 14:12:40;;;;;;;1.90;1.17;;;6.50;99.90;;;;;;5094329;28;20055;-88
2023/01/03 14:15:20;;;;;;;0.52;0.50;;;6.50;99.90;;;;;;5093904;28;20056;-88
2023/01/03 14:17:50;;;;;;;2.92;1.60;;;6.50;99.90;;;;;;5094067;28;20101;-87
2023/01/03 14:20:22;;;;;;;1.80;0.70;;;6.50;99.90;;;;;;5093376;28;20048;-87
2023/01/03 14:22:50;;;;;;;1.08;0.98;;;6.50;99.90;;;;;;5091989;28;20043;-87